createdAt,value
2023-04-05T00:01:08.261Z,17.77
2023-04-05T00:03:36.507Z,18.00
2023-04-05T00:06:05.513Z,18.53
2023-04-05T00:08:33.526Z,22.63
2023-04-05T00:11:02.763Z,19.57
2023-04-05T00:13:31.522Z,22.27
2023-04-05T00:16:01.336Z,20.90
2023-04-05T00:18:34.404Z,21.13
2023-04-05T00:21:02.534Z,22.23
2023-04-05T00:23:37.500Z,17.90
2023-04-05T00:26:06.891Z,22.87
2023-04-05T00:28:35.371Z,23.33
2023-04-05T00:31:03.430Z,21.70
2023-04-05T00:33:31.298Z,19.03
2023-04-05T00:35:59.212Z,22.60
2023-04-05T00:38:27.269Z,18.63
2023-04-05T00:40:55.170Z,26.80
2023-04-05T00:43:24.394Z,19.47
2023-04-05T00:45:52.245Z,21.87
2023-04-05T00:48:20.214Z,18.40
2023-04-05T00:50:48.438Z,22.70
2023-04-05T00:53:16.296Z,19.77
2023-04-05T00:55:44.149Z,15.00
2023-04-05T00:58:12.734Z,17.57
2023-04-05T01:00:42.219Z,22.03
2023-04-05T01:03:10.237Z,17.40
2023-04-05T01:05:40.130Z,22.00
2023-04-05T01:08:13.115Z,16.10
2023-04-05T01:10:43.191Z,21.63
2023-04-05T01:13:11.221Z,16.20
2023-04-05T01:15:39.222Z,22.27
2023-04-05T01:18:10.686Z,20.10
2023-04-05T01:20:40.776Z,16.87
2023-04-05T01:23:47.438Z,14.83
2023-04-05T01:26:45.718Z,17.93
2023-04-05T01:29:48.180Z,18.60
2023-04-05T01:32:31.604Z,18.87
2023-04-05T01:35:03.193Z,19.43
2023-04-05T01:37:32.897Z,17.97
2023-04-05T01:40:00.815Z,18.37
2023-04-05T01:42:29.061Z,17.03
2023-04-05T01:44:58.518Z,18.87
2023-04-05T01:47:26.478Z,25.30
2023-04-05T01:49:54.414Z,16.33
2023-04-05T01:52:22.568Z,18.03
2023-04-05T01:54:50.423Z,20.00
2023-04-05T01:57:18.298Z,20.93
2023-04-05T01:59:46.198Z,15.90
2023-04-05T02:02:15.652Z,17.67
2023-04-05T02:04:43.519Z,15.80
2023-04-05T02:07:11.390Z,21.10
2023-04-05T02:09:39.247Z,18.13
2023-04-05T02:12:07.084Z,19.03
2023-04-05T02:14:35.408Z,20.53
2023-04-05T02:17:05.815Z,16.77
2023-04-05T02:19:40.736Z,17.17
2023-04-05T02:22:08.980Z,21.30
2023-04-05T02:24:36.851Z,20.00
2023-04-05T02:27:04.825Z,15.00
2023-04-05T02:29:32.642Z,15.07
2023-04-05T02:32:00.549Z,16.80
2023-04-05T02:34:28.568Z,22.27
2023-04-05T02:36:58.984Z,15.57
2023-04-05T02:39:29.089Z,21.23
2023-04-05T02:41:56.993Z,18.60
2023-04-05T02:44:24.882Z,17.60
2023-04-05T02:46:52.736Z,17.70
2023-04-05T02:49:20.990Z,17.23
2023-04-05T02:51:48.829Z,20.63
2023-04-05T02:54:18.119Z,20.43
2023-04-05T02:56:46.332Z,21.43
2023-04-05T02:59:14.851Z,17.37
2023-04-05T03:01:44.867Z,19.77
2023-04-05T03:04:14.663Z,17.67
2023-04-05T03:06:48.662Z,21.30
2023-04-05T03:09:17.985Z,18.17
2023-04-05T03:11:45.890Z,15.83
2023-04-05T03:14:13.802Z,15.37
2023-04-05T03:16:41.753Z,18.90
2023-04-05T03:19:09.916Z,16.50
2023-04-05T03:21:37.850Z,19.27
2023-04-05T03:24:07.193Z,19.50
2023-04-05T03:26:36.456Z,20.97
2023-04-05T03:29:04.287Z,16.40
2023-04-05T03:31:32.212Z,18.00
2023-04-05T03:34:00.155Z,17.37
2023-04-05T03:36:30.652Z,17.67
2023-04-05T03:38:58.829Z,20.33
2023-04-05T03:41:27.080Z,24.50
2023-04-05T03:43:56.517Z,15.57
2023-04-05T03:46:24.563Z,19.33
2023-04-05T03:48:52.842Z,20.53
2023-04-05T03:51:20.957Z,20.47
2023-04-05T03:53:48.856Z,21.47
2023-04-05T03:56:16.702Z,21.73
2023-04-05T03:58:44.564Z,19.10
2023-04-05T04:01:13.830Z,20.03
2023-04-05T04:03:41.768Z,18.90
2023-04-05T04:06:09.673Z,23.73
2023-04-05T04:08:37.608Z,19.57
2023-04-05T04:11:06.567Z,19.97
2023-04-05T04:13:34.472Z,21.37
2023-04-05T04:16:02.385Z,32.07
2023-04-05T04:18:31.683Z,25.40
2023-04-05T04:20:59.754Z,19.20
2023-04-05T04:23:28.924Z,20.03
2023-04-05T04:25:56.771Z,24.17
2023-04-05T04:28:27.945Z,21.03
2023-04-05T04:30:55.836Z,21.73
2023-04-05T04:33:24.145Z,27.23
2023-04-05T04:35:54.903Z,22.33
2023-04-05T04:38:25.953Z,23.50
2023-04-05T04:40:54.040Z,26.73
2023-04-05T04:43:27.362Z,20.23
2023-04-05T04:45:55.673Z,24.47
2023-04-05T04:48:23.579Z,24.43
2023-04-05T04:50:51.831Z,23.60
2023-04-05T04:53:24.203Z,25.60
2023-04-05T04:55:52.335Z,20.60
2023-04-05T04:58:20.293Z,23.70
2023-04-05T05:00:48.420Z,20.00
2023-04-05T05:03:16.640Z,24.73
2023-04-05T05:05:44.620Z,25.23
2023-04-05T05:08:12.705Z,27.20
2023-04-05T05:10:42.320Z,27.03
2023-04-05T05:13:11.220Z,24.33
2023-04-05T05:15:40.933Z,26.00
2023-04-05T05:18:09.080Z,24.53
2023-04-05T05:20:37.450Z,23.83
2023-04-05T05:23:06.030Z,23.87
2023-04-05T05:25:35.419Z,23.00
2023-04-05T05:28:05.106Z,23.70
2023-04-05T05:30:33.576Z,25.50
2023-04-05T05:33:05.528Z,24.13
2023-04-05T05:35:40.635Z,29.70
2023-04-05T05:38:10.763Z,27.70
2023-04-05T05:40:40.735Z,24.27
2023-04-05T05:43:10.618Z,24.13
2023-04-05T05:45:44.007Z,24.53
2023-04-05T05:48:12.142Z,24.90
2023-04-05T05:50:40.849Z,22.57
2023-04-05T05:53:08.911Z,29.23
2023-04-05T05:55:36.899Z,28.63
2023-04-05T05:58:05.187Z,28.90
2023-04-05T06:00:34.559Z,27.93
2023-04-05T06:03:02.537Z,27.90
2023-04-05T06:05:30.462Z,29.17
2023-04-05T06:07:58.317Z,24.83
2023-04-05T06:10:34.754Z,29.67
2023-04-05T06:13:02.764Z,28.53
2023-04-05T06:15:32.640Z,26.67
2023-04-05T06:18:02.176Z,25.87
2023-04-05T06:20:30.118Z,27.23
2023-04-05T06:22:57.980Z,26.83
2023-04-05T06:25:26.700Z,29.97
2023-04-05T06:27:54.605Z,33.17
2023-04-05T06:30:22.626Z,29.77
2023-04-05T06:32:54.854Z,28.53
2023-04-05T06:35:24.665Z,27.33
2023-04-05T06:37:52.606Z,33.43
2023-04-05T06:40:20.729Z,27.40
2023-04-05T06:42:48.721Z,29.90
2023-04-05T06:45:19.134Z,28.87
2023-04-05T06:47:47.162Z,30.80
2023-04-05T06:50:15.128Z,28.10
2023-04-05T06:52:44.445Z,31.30
2023-04-05T06:55:12.440Z,30.60
2023-04-05T06:57:40.397Z,27.63
2023-04-05T07:00:11.843Z,33.47
2023-04-05T07:02:41.339Z,26.03
2023-04-05T07:05:09.667Z,27.47
2023-04-05T07:07:40.282Z,32.37
2023-04-05T07:10:10.558Z,33.57
2023-04-05T07:12:39.079Z,32.10
2023-04-05T07:15:08.440Z,31.07
2023-04-05T07:17:36.602Z,34.17
2023-04-05T07:20:07.525Z,29.63
2023-04-05T07:22:35.825Z,36.10
2023-04-05T07:25:03.886Z,31.50
2023-04-05T07:27:33.280Z,30.57
2023-04-05T07:30:01.546Z,31.57
2023-04-05T07:32:29.698Z,33.33
2023-04-05T07:34:57.710Z,29.13
2023-04-05T07:37:27.348Z,31.00
2023-04-05T07:39:55.349Z,37.03
2023-04-05T07:42:23.274Z,30.67
2023-04-05T07:44:52.676Z,33.13
2023-04-05T07:47:20.562Z,35.03
2023-04-05T07:49:48.490Z,33.00
2023-04-05T07:52:16.392Z,35.17
2023-04-05T07:54:45.766Z,34.23
2023-04-05T07:57:17.734Z,34.10
2023-04-05T07:59:45.709Z,36.63
2023-04-05T08:02:15.193Z,34.23
2023-04-05T08:04:43.180Z,35.33
2023-04-05T08:07:11.290Z,32.70
2023-04-05T08:09:39.144Z,33.60
2023-04-05T08:12:07.776Z,37.07
2023-04-05T08:14:35.665Z,33.10
2023-04-05T08:17:03.583Z,37.97
2023-04-05T08:19:32.856Z,36.07
2023-04-05T08:22:00.804Z,36.20
2023-04-05T08:24:28.798Z,38.23
2023-04-05T08:26:56.783Z,36.13
2023-04-05T08:29:24.794Z,39.13
2023-04-05T08:31:52.759Z,37.33
2023-04-05T08:34:20.758Z,35.60
2023-04-05T08:36:50.385Z,39.20
2023-04-05T08:39:18.733Z,34.17
2023-04-05T08:41:49.322Z,35.57
2023-04-05T08:44:17.175Z,39.03
2023-04-05T08:46:45.054Z,36.03
2023-04-05T08:49:12.946Z,40.43
2023-04-05T08:51:40.949Z,38.53
2023-04-05T08:54:10.409Z,36.00
2023-04-05T08:56:38.358Z,42.03
2023-04-05T08:59:07.364Z,34.97
2023-04-05T09:01:39.296Z,33.27
2023-04-05T09:04:07.772Z,34.70
2023-04-05T09:06:36.878Z,30.73
2023-04-05T09:09:07.743Z,30.73
2023-04-05T09:11:37.226Z,33.57
2023-04-05T09:14:05.176Z,34.03
2023-04-05T09:16:33.907Z,23.50
2023-04-05T09:19:01.987Z,25.17
2023-04-05T09:21:30.457Z,26.90
2023-04-05T09:23:58.776Z,25.63
2023-04-05T09:26:27.330Z,29.43
2023-04-05T09:28:56.740Z,28.13
2023-04-05T09:31:38.022Z,26.23
2023-04-05T09:34:06.258Z,26.33
2023-04-05T09:36:34.751Z,26.07
2023-04-05T09:39:06.748Z,25.10
2023-04-05T09:41:34.784Z,24.87
2023-04-05T09:44:04.059Z,29.30
2023-04-05T09:46:34.097Z,27.20
2023-04-05T09:49:03.850Z,25.63
2023-04-05T09:51:35.201Z,26.97
2023-04-05T09:54:04.022Z,22.00
2023-04-05T09:56:33.106Z,24.17
2023-04-05T09:59:02.447Z,22.27
2023-04-05T10:01:33.262Z,19.83
2023-04-05T10:04:01.615Z,26.03
2023-04-05T10:06:39.238Z,24.30
2023-04-05T10:09:08.139Z,22.60
2023-04-05T10:11:36.377Z,24.77
2023-04-05T10:14:05.181Z,25.10
2023-04-05T10:16:37.954Z,21.37
2023-04-05T10:19:06.966Z,22.57
2023-04-05T10:21:35.408Z,26.60
2023-04-05T10:24:07.608Z,19.37
2023-04-05T10:26:39.543Z,23.57
2023-04-05T10:29:11.333Z,24.40
2023-04-05T10:31:44.666Z,22.73
2023-04-05T10:34:15.481Z,20.90
2023-04-05T10:36:46.621Z,20.47
2023-04-05T10:39:15.013Z,25.03
2023-04-05T10:41:44.166Z,20.80
2023-04-05T10:44:23.051Z,20.57
2023-04-05T10:46:56.868Z,19.47
2023-04-05T10:49:33.510Z,17.00
2023-04-05T10:52:01.916Z,13.03
2023-04-05T10:54:29.931Z,16.87
2023-04-05T10:56:57.845Z,15.47
2023-04-05T10:59:26.043Z,10.00
2023-04-05T11:01:55.557Z,11.93
2023-04-05T11:04:23.547Z,10.57
2023-04-05T11:07:11.592Z,9.53
2023-04-05T11:09:39.740Z,6.20
2023-04-05T11:12:07.837Z,5.33
2023-04-05T11:14:37.326Z,7.00
2023-04-05T11:17:06.888Z,7.20
2023-04-05T11:19:52.340Z,8.87
2023-04-05T11:22:27.306Z,8.53
2023-04-05T11:24:58.065Z,9.30
2023-04-05T11:27:26.834Z,6.73
2023-04-05T11:29:54.937Z,9.70
2023-04-05T11:32:24.568Z,6.43
2023-04-05T11:35:02.118Z,4.27
2023-04-05T11:37:55.395Z,3.30
2023-04-05T11:40:27.855Z,5.30
2023-04-05T11:43:06.046Z,3.00
2023-04-05T11:45:34.395Z,3.83
2023-04-05T11:48:06.064Z,3.80
2023-04-05T11:50:33.997Z,4.93
2023-04-05T11:53:14.357Z,7.80
2023-04-05T11:55:43.513Z,4.67
2023-04-05T11:58:15.755Z,8.13
2023-04-05T12:00:44.040Z,5.00
2023-04-05T12:03:16.766Z,4.37
2023-04-05T12:05:56.255Z,5.40
2023-04-05T12:08:24.531Z,4.67
2023-04-05T12:10:57.040Z,4.03
2023-04-05T12:13:29.430Z,4.10
2023-04-05T12:15:59.401Z,4.00
2023-04-05T12:18:29.166Z,7.37
2023-04-05T12:20:57.090Z,4.57
2023-04-05T12:23:25.052Z,3.53
2023-04-05T12:25:54.157Z,3.40
2023-04-05T12:28:22.107Z,6.70
2023-04-05T12:30:50.329Z,3.13
2023-04-05T12:33:29.597Z,4.17
2023-04-05T12:35:57.599Z,5.97
2023-04-05T12:38:27.148Z,8.47
2023-04-05T12:40:55.561Z,5.07
2023-04-05T12:43:23.591Z,5.13
2023-04-05T12:45:54.098Z,5.87
2023-04-05T12:48:23.798Z,3.13
2023-04-05T12:50:54.669Z,3.40
2023-04-05T12:53:24.033Z,3.03
2023-04-05T12:55:52.559Z,3.50
2023-04-05T12:58:20.901Z,3.37
2023-04-05T13:00:48.843Z,4.10
2023-04-05T13:03:18.222Z,3.47
2023-04-05T13:05:46.304Z,3.90
2023-04-05T13:08:15.687Z,3.67
2023-04-05T13:10:43.604Z,4.70
2023-04-05T13:13:11.477Z,4.73
2023-04-05T13:15:39.763Z,5.43
2023-04-05T13:18:07.939Z,6.33
2023-04-05T13:20:36.141Z,7.23
2023-04-05T13:23:04.090Z,5.53
2023-04-05T13:25:33.375Z,4.67
2023-04-05T13:28:01.251Z,9.50
2023-04-05T13:30:30.615Z,5.67
2023-04-05T13:32:58.701Z,6.90
2023-04-05T13:35:27.152Z,6.60
2023-04-05T13:37:55.130Z,5.77
2023-04-05T13:40:23.066Z,8.73
2023-04-05T13:42:52.337Z,9.13
2023-04-05T13:45:20.440Z,14.27
2023-04-05T13:47:48.570Z,5.87
2023-04-05T13:50:16.558Z,10.70
2023-04-05T13:52:44.465Z,5.93
2023-04-05T13:55:12.549Z,7.23
2023-04-05T13:57:40.477Z,6.63
2023-04-05T14:00:11.092Z,6.07
2023-04-05T14:02:39.186Z,5.67
2023-04-05T14:05:08.459Z,7.57
2023-04-05T14:07:36.504Z,7.53
2023-04-05T14:10:06.235Z,7.10
2023-04-05T14:12:34.988Z,10.30
2023-04-05T14:15:02.923Z,6.47
2023-04-05T14:17:32.267Z,7.20
2023-04-05T14:20:00.270Z,6.47
2023-04-05T14:22:28.205Z,8.43
2023-04-05T14:24:56.102Z,6.23
2023-04-05T14:27:27.136Z,6.93
2023-04-05T14:29:57.084Z,8.37
2023-04-05T14:32:25.582Z,7.10
2023-04-05T14:34:54.984Z,5.30
2023-04-05T14:37:22.879Z,8.53
2023-04-05T14:39:50.812Z,6.93
2023-04-05T14:42:18.722Z,6.40
2023-04-05T14:44:46.719Z,7.20
2023-04-05T14:47:14.714Z,5.73
2023-04-05T14:49:43.018Z,5.67
2023-04-05T14:52:12.398Z,6.83
2023-04-05T14:54:40.311Z,4.87
2023-04-05T14:57:08.236Z,4.33
2023-04-05T14:59:36.126Z,5.13
2023-04-05T15:02:04.219Z,5.37
2023-04-05T15:04:32.209Z,5.83
2023-04-05T15:07:00.137Z,5.13
2023-04-05T15:09:29.551Z,4.43
2023-04-05T15:11:57.504Z,4.17
2023-04-05T15:14:31.724Z,5.30
2023-04-05T15:17:00.592Z,3.83
2023-04-05T15:19:30.628Z,6.27
2023-04-05T15:21:58.611Z,6.83
2023-04-05T15:24:26.525Z,5.60
2023-04-05T15:27:01.754Z,4.17
2023-04-05T15:29:29.922Z,5.33
2023-04-05T15:31:58.599Z,3.40
2023-04-05T15:34:26.606Z,2.77
2023-04-05T15:36:54.912Z,3.37
2023-04-05T15:39:22.862Z,2.67
2023-04-05T15:41:50.825Z,2.50
2023-04-05T15:44:20.441Z,3.43
2023-04-05T15:46:48.675Z,5.00
2023-04-05T15:49:17.706Z,2.80
2023-04-05T15:51:45.714Z,3.00
2023-04-05T15:54:18.562Z,3.00
2023-04-05T15:56:46.503Z,3.00
2023-04-05T15:59:14.483Z,2.60
2023-04-05T16:01:43.927Z,3.27
2023-04-05T16:04:11.895Z,2.60
2023-04-05T16:06:39.820Z,2.80
2023-04-05T16:09:07.789Z,3.77
2023-04-05T16:11:35.717Z,5.70
2023-04-05T16:14:04.151Z,4.83
2023-04-05T16:16:41.924Z,3.07
2023-04-05T16:19:19.331Z,3.30
2023-04-05T16:21:47.647Z,5.60
2023-04-05T16:24:15.897Z,3.80
2023-04-05T16:26:43.912Z,3.63
2023-04-05T16:29:11.828Z,3.30
2023-04-05T16:31:39.844Z,3.03
2023-04-05T16:34:08.132Z,5.10
2023-04-05T16:36:37.701Z,4.83
2023-04-05T16:39:05.709Z,3.73
2023-04-05T16:41:33.967Z,3.20
2023-04-05T16:44:01.975Z,9.57
2023-04-05T16:46:32.222Z,4.00
2023-04-05T16:49:00.710Z,8.70
2023-04-05T16:51:28.834Z,4.63
2023-04-05T16:53:58.385Z,3.87
2023-04-05T16:56:26.282Z,3.70
2023-04-05T16:58:54.211Z,4.07
2023-04-05T17:01:22.175Z,3.60
2023-04-05T17:03:50.103Z,4.33
2023-04-05T17:06:18.012Z,4.57
2023-04-05T17:08:45.912Z,4.00
2023-04-05T17:11:15.217Z,7.43
2023-04-05T17:13:45.053Z,6.83
2023-04-05T17:16:13.686Z,6.83
2023-04-05T17:18:42.035Z,8.23
2023-04-05T17:21:10.068Z,9.53
2023-04-05T17:23:37.993Z,8.50
2023-04-05T17:26:06.037Z,6.90
2023-04-05T17:28:35.828Z,5.90
2023-04-05T17:31:03.939Z,5.03
2023-04-05T17:33:32.368Z,4.03
2023-04-05T17:36:00.321Z,4.17
2023-04-05T17:38:28.279Z,4.40
2023-04-05T17:40:57.341Z,5.40
2023-04-05T17:43:25.413Z,7.70
2023-04-05T17:45:55.482Z,5.43
2023-04-05T17:48:23.390Z,5.70
2023-04-05T17:50:51.272Z,5.47
2023-04-05T17:53:19.224Z,5.03
2023-04-05T17:55:47.200Z,3.67
2023-04-05T17:58:15.120Z,7.37
2023-04-05T18:00:43.048Z,4.97
2023-04-05T18:03:13.401Z,3.93
2023-04-05T18:05:41.504Z,3.83
2023-04-05T18:08:09.445Z,5.23
2023-04-05T18:10:37.322Z,5.30
2023-04-05T18:13:05.871Z,3.23
2023-04-05T18:15:33.850Z,2.30
2023-04-05T18:18:02.179Z,1.67
2023-04-05T18:20:31.511Z,1.80
2023-04-05T18:22:59.659Z,3.27
2023-04-05T18:25:27.768Z,1.60
2023-04-05T18:27:55.952Z,3.73
2023-04-05T18:30:24.105Z,4.73
2023-04-05T18:32:52.005Z,4.50
2023-04-05T18:35:20.025Z,3.03
2023-04-05T18:37:49.303Z,6.67
2023-04-05T18:40:17.758Z,4.43
2023-04-05T18:42:46.342Z,2.43
2023-04-05T18:45:14.251Z,2.90
2023-04-05T18:47:42.185Z,3.80
2023-04-05T18:50:11.037Z,2.40
2023-04-05T18:52:38.930Z,4.23
2023-04-05T18:55:09.054Z,6.80
2023-04-05T18:57:36.964Z,9.87
2023-04-05T19:00:05.553Z,5.50
2023-04-05T19:02:33.493Z,11.50
2023-04-05T19:05:01.412Z,12.77
2023-04-05T19:07:29.279Z,13.20
2023-04-05T19:09:57.111Z,8.50
2023-04-05T19:12:26.416Z,4.17
2023-04-05T19:14:54.308Z,12.73
2023-04-05T19:17:22.433Z,11.70
2023-04-05T19:19:50.342Z,16.93
2023-04-05T19:22:18.259Z,9.30
2023-04-05T19:24:46.163Z,16.83
2023-04-05T19:27:14.074Z,17.77
2023-04-05T19:29:43.650Z,26.87
2023-04-05T19:32:11.523Z,15.57
2023-04-05T19:34:39.697Z,19.23
2023-04-05T19:37:07.583Z,12.27
2023-04-05T19:39:35.854Z,18.93
2023-04-05T19:42:03.838Z,17.20
2023-04-05T19:44:51.636Z,11.07
2023-04-05T19:47:20.577Z,16.43
2023-04-05T19:49:48.899Z,16.60
2023-04-05T19:52:35.147Z,20.97
2023-04-05T19:55:03.023Z,10.20
2023-04-05T19:57:31.222Z,21.97
2023-04-05T20:00:00.668Z,17.10
2023-04-05T20:02:37.084Z,16.73
2023-04-05T20:05:06.394Z,13.30
2023-04-05T20:07:34.266Z,14.20
2023-04-05T20:10:02.127Z,12.47
2023-04-05T20:12:31.426Z,14.23
2023-04-05T20:15:00.680Z,11.33
2023-04-05T20:17:28.627Z,15.83
2023-04-05T20:19:57.705Z,9.80
2023-04-05T20:22:26.904Z,11.00
2023-04-05T20:24:54.864Z,11.93
2023-04-05T20:27:22.758Z,9.93
2023-04-05T20:29:52.407Z,10.07
2023-04-05T20:32:21.676Z,12.87
2023-04-05T20:34:49.644Z,15.30
2023-04-05T20:37:17.542Z,11.43
2023-04-05T20:39:45.517Z,13.60
2023-04-05T20:42:13.566Z,17.53
2023-04-05T20:44:41.509Z,21.07
2023-04-05T20:47:09.426Z,17.30
2023-04-05T20:49:38.658Z,8.67
2023-04-05T20:52:07.861Z,10.73
2023-04-05T20:54:35.820Z,6.97
2023-04-05T20:57:03.703Z,9.33
2023-04-05T20:59:31.605Z,5.97
2023-04-05T21:01:59.639Z,7.60
2023-04-05T21:04:29.980Z,10.43
2023-04-05T21:06:59.495Z,8.50
2023-04-05T21:09:27.862Z,8.40
2023-04-05T21:11:55.792Z,10.20
2023-04-05T21:14:23.772Z,6.73
2023-04-05T21:16:51.698Z,3.93
2023-04-05T21:19:19.691Z,3.07
2023-04-05T21:21:47.677Z,8.27
2023-04-05T21:24:17.015Z,7.53
2023-04-05T21:26:44.881Z,8.37
2023-04-05T21:29:14.104Z,2.53
2023-04-05T21:31:42.110Z,5.60
2023-04-05T21:34:10.012Z,7.07
2023-04-05T21:36:37.960Z,13.20
2023-04-05T21:39:08.782Z,5.33
2023-04-05T21:41:38.241Z,7.60
2023-04-05T21:44:06.576Z,3.37
2023-04-05T21:46:34.518Z,4.13
2023-04-05T21:49:02.434Z,3.13
2023-04-05T21:51:30.344Z,2.93
2023-04-05T21:53:58.322Z,4.83
2023-04-05T21:56:26.202Z,9.73
2023-04-05T21:58:55.511Z,13.20
2023-04-05T22:01:23.804Z,11.80
2023-04-05T22:03:52.260Z,7.53
2023-04-05T22:06:20.178Z,11.80
2023-04-05T22:08:50.063Z,4.73
2023-04-05T22:11:18.308Z,9.23
2023-04-05T22:13:46.200Z,4.27
2023-04-05T22:16:15.524Z,10.90
2023-04-05T22:18:44.026Z,2.03
2023-04-05T22:21:12.321Z,10.00
2023-04-05T22:23:42.812Z,9.43
2023-04-05T22:26:10.984Z,7.73
2023-04-05T22:28:38.871Z,2.20
2023-04-05T22:31:06.970Z,3.77
2023-04-05T22:33:36.242Z,7.33
2023-04-05T22:36:04.323Z,2.73
2023-04-05T22:38:32.234Z,7.70
2023-04-05T22:41:00.126Z,3.83
2023-04-05T22:43:28.046Z,6.33
2023-04-05T22:45:56.204Z,8.77
2023-04-05T22:48:24.086Z,15.20
2023-04-05T22:50:53.320Z,8.20
2023-04-05T22:53:21.273Z,6.20
2023-04-05T22:55:49.170Z,7.53
2023-04-05T22:58:17.348Z,5.17
2023-04-05T23:00:45.231Z,5.57
2023-04-05T23:03:13.074Z,5.37
2023-04-05T23:05:41.500Z,8.00
2023-04-05T23:08:10.789Z,8.37
2023-04-05T23:10:38.703Z,7.87
2023-04-05T23:13:07.152Z,5.97
2023-04-05T23:15:35.112Z,10.10
2023-04-05T23:18:03.113Z,3.47
2023-04-05T23:20:30.990Z,5.10
2023-04-05T23:22:58.861Z,4.10
2023-04-05T23:25:28.097Z,5.03
2023-04-05T23:27:56.122Z,8.43
2023-04-05T23:30:24.025Z,5.07
2023-04-05T23:32:51.938Z,8.97
2023-04-05T23:35:19.945Z,13.10
2023-04-05T23:37:47.837Z,8.77
2023-04-05T23:40:16.156Z,14.23
2023-04-05T23:42:45.720Z,14.90
2023-04-05T23:45:13.609Z,15.50
2023-04-05T23:47:41.523Z,12.80
2023-04-05T23:50:10.859Z,17.80
2023-04-05T23:52:38.750Z,11.57
2023-04-05T23:55:07.096Z,7.17
2023-04-05T23:57:35.007Z,1.77
